createdAt,value
2023-02-09T00:00:26.772Z,-9.27
2023-02-09T00:00:57.595Z,-9.27
2023-02-09T00:01:28.703Z,-9.27
2023-02-09T00:01:59.769Z,-9.38
2023-02-09T00:02:31.868Z,-9.38
2023-02-09T00:03:01.762Z,-9.50
2023-02-09T00:03:32.763Z,-9.61
2023-02-09T00:04:03.660Z,-9.61
2023-02-09T00:04:34.824Z,-9.61
2023-02-09T00:05:05.700Z,-9.61
2023-02-09T00:05:36.778Z,-9.72
2023-02-09T00:06:07.819Z,-9.72
2023-02-09T00:06:38.741Z,-9.72
2023-02-09T00:07:09.708Z,-9.72
2023-02-09T00:07:41.658Z,-9.72
2023-02-09T00:08:11.725Z,-9.72
2023-02-09T00:08:42.830Z,-9.72
2023-02-09T00:09:13.598Z,-9.72
2023-02-09T00:09:44.718Z,-9.72
2023-02-09T00:10:15.771Z,-9.72
2023-02-09T00:10:47.136Z,-9.72
2023-02-09T00:11:17.796Z,-9.72
2023-02-09T00:11:48.663Z,-9.72
2023-02-09T00:12:19.938Z,-9.72
2023-02-09T00:12:51.596Z,-9.72
2023-02-09T00:13:21.860Z,-9.72
2023-02-09T00:13:52.597Z,-9.72
2023-02-09T00:14:24.945Z,-9.72
2023-02-09T00:14:54.548Z,-9.61
2023-02-09T00:15:25.860Z,-9.61
2023-02-09T00:15:56.666Z,-9.50
2023-02-09T00:16:27.692Z,-9.38
2023-02-09T00:16:58.784Z,-9.38
2023-02-09T00:17:29.706Z,-9.27
2023-02-09T00:18:01.868Z,-9.27
2023-02-09T00:18:31.637Z,-9.22
2023-02-09T00:19:02.732Z,-9.22
2023-02-09T00:19:33.664Z,-9.22
2023-02-09T00:20:04.890Z,-9.11
2023-02-09T00:20:35.835Z,-9.11
2023-02-09T00:21:06.635Z,-9.11
2023-02-09T00:21:37.782Z,-9.11
2023-02-09T00:22:08.820Z,-9.22
2023-02-09T00:22:39.752Z,-9.22
2023-02-09T00:23:11.699Z,-9.27
2023-02-09T00:23:41.721Z,-9.27
2023-02-09T00:24:12.659Z,-9.38
2023-02-09T00:24:43.805Z,-9.38
2023-02-09T00:25:14.700Z,-9.50
2023-02-09T00:25:45.662Z,-9.50
2023-02-09T00:26:16.748Z,-9.50
2023-02-09T00:26:47.808Z,-9.61
2023-02-09T00:27:18.691Z,-9.61
2023-02-09T00:27:49.712Z,-9.61
2023-02-09T00:28:21.730Z,-9.61
2023-02-09T00:28:51.799Z,-9.61
2023-02-09T00:29:22.876Z,-9.61
2023-02-09T00:29:53.498Z,-9.61
2023-02-09T00:30:24.823Z,-9.61
2023-02-09T00:30:55.771Z,-9.61
2023-02-09T00:31:26.765Z,-9.61
2023-02-09T00:31:57.767Z,-9.61
2023-02-09T00:32:28.916Z,-9.61
2023-02-09T00:32:59.647Z,-9.72
2023-02-09T00:33:31.812Z,-9.72
2023-02-09T00:34:01.776Z,-9.77
2023-02-09T00:34:32.921Z,-9.77
2023-02-09T00:35:03.648Z,-9.77
2023-02-09T00:35:34.744Z,-9.88
2023-02-09T00:36:05.873Z,-9.88
2023-02-09T00:36:36.861Z,-9.88
2023-02-09T00:37:07.833Z,-9.88
2023-02-09T00:37:38.415Z,-9.88
2023-02-09T00:38:09.672Z,-9.88
2023-02-09T00:38:41.571Z,-9.88
2023-02-09T00:39:11.816Z,-9.88
2023-02-09T00:39:42.597Z,-9.88
2023-02-09T00:40:13.829Z,-10.00
2023-02-09T00:40:45.170Z,-10.00
2023-02-09T00:41:15.639Z,-10.00
2023-02-09T00:41:46.824Z,-9.88
2023-02-09T00:42:17.831Z,-9.88
2023-02-09T00:42:48.754Z,-9.88
2023-02-09T00:43:19.749Z,-9.88
2023-02-09T00:43:51.763Z,-9.88
2023-02-09T00:44:21.744Z,-9.88
2023-02-09T00:44:52.590Z,-9.88
2023-02-09T00:45:23.781Z,-9.88
2023-02-09T00:45:54.781Z,-9.88
2023-02-09T00:46:25.752Z,-9.88
2023-02-09T00:46:56.620Z,-9.88
2023-02-09T00:47:27.821Z,-9.88
2023-02-09T00:47:58.772Z,-9.88
2023-02-09T00:48:29.772Z,-9.88
2023-02-09T00:49:01.960Z,-9.88
2023-02-09T00:49:31.922Z,-9.88
2023-02-09T00:50:02.732Z,-9.88
2023-02-09T00:50:33.772Z,-9.88
2023-02-09T00:51:04.818Z,-10.00
2023-02-09T00:51:35.743Z,-10.00
2023-02-09T00:52:08.883Z,-10.00
2023-02-09T00:52:38.222Z,-10.00
2023-02-09T00:53:08.645Z,-10.00
2023-02-09T00:53:39.697Z,-10.00
2023-02-09T00:54:11.893Z,-10.00
2023-02-09T00:54:41.825Z,-10.00
2023-02-09T00:55:12.952Z,-10.11
2023-02-09T00:55:43.963Z,-10.11
2023-02-09T00:56:14.759Z,-10.11
2023-02-09T00:56:46.173Z,-10.11
2023-02-09T00:57:16.930Z,-10.11
2023-02-09T00:57:47.873Z,-10.22
2023-02-09T00:58:18.717Z,-10.22
2023-02-09T00:58:49.929Z,-10.22
2023-02-09T00:59:21.750Z,-10.22
2023-02-09T00:59:51.972Z,-10.11
2023-02-09T01:00:25.712Z,-10.11
2023-02-09T01:00:53.532Z,-10.11
2023-02-09T01:01:24.902Z,-10.11
2023-02-09T01:01:55.878Z,-10.00
2023-02-09T01:02:26.813Z,-10.00
2023-02-09T01:02:57.558Z,-10.00
2023-02-09T01:03:28.906Z,-9.88
2023-02-09T01:03:59.716Z,-9.88
2023-02-09T01:04:31.785Z,-9.88
2023-02-09T01:05:02.168Z,-9.88
2023-02-09T01:05:32.909Z,-9.88
2023-02-09T01:06:03.771Z,-9.88
2023-02-09T01:06:34.695Z,-9.77
2023-02-09T01:07:05.625Z,-9.77
2023-02-09T01:07:36.529Z,-9.77
2023-02-09T01:08:07.757Z,-9.77
2023-02-09T01:08:38.569Z,-9.77
2023-02-09T01:09:09.820Z,-9.77
2023-02-09T01:09:41.853Z,-9.88
2023-02-09T01:10:11.848Z,-9.88
2023-02-09T01:10:43.012Z,-9.88
2023-02-09T01:11:13.928Z,-9.88
2023-02-09T01:11:44.879Z,-9.88
2023-02-09T01:12:15.663Z,-9.88
2023-02-09T01:12:46.964Z,-9.77
2023-02-09T01:13:17.838Z,-9.77
2023-02-09T01:13:48.853Z,-9.77
2023-02-09T01:14:19.783Z,-9.77
2023-02-09T01:14:51.711Z,-9.77
2023-02-09T01:15:24.715Z,-9.77
2023-02-09T01:15:52.860Z,-9.77
2023-02-09T01:16:23.722Z,-9.77
2023-02-09T01:16:55.045Z,-9.77
2023-02-09T01:17:25.794Z,-9.77
2023-02-09T01:17:56.742Z,-9.77
2023-02-09T01:18:27.825Z,-9.77
2023-02-09T01:18:58.950Z,-9.77
2023-02-09T01:19:29.805Z,-9.77
2023-02-09T01:20:02.045Z,-9.88
2023-02-09T01:20:32.022Z,-9.88
2023-02-09T01:21:02.728Z,-10.00
2023-02-09T01:21:33.634Z,-10.11
2023-02-09T01:22:04.759Z,-10.11
2023-02-09T01:22:35.537Z,-10.22
2023-02-09T01:23:06.651Z,-10.22
2023-02-09T01:23:37.612Z,-10.22
2023-02-09T01:24:08.603Z,-10.22
2023-02-09T01:24:39.742Z,-10.27
2023-02-09T01:25:11.832Z,-10.27
2023-02-09T01:25:41.953Z,-10.27
2023-02-09T01:26:12.817Z,-10.38
2023-02-09T01:26:43.895Z,-10.38
2023-02-09T01:27:14.788Z,-10.38
2023-02-09T01:27:45.755Z,-10.38
2023-02-09T01:28:17.073Z,-10.38
2023-02-09T01:28:47.876Z,-10.50
2023-02-09T01:29:18.667Z,-10.50
2023-02-09T01:29:49.908Z,-10.50
2023-02-09T01:30:24.431Z,-10.50
2023-02-09T01:30:51.914Z,-10.27
2023-02-09T01:31:22.981Z,-10.27
2023-02-09T01:31:53.754Z,-10.22
2023-02-09T01:32:24.800Z,-10.22
2023-02-09T01:32:55.726Z,-10.22
2023-02-09T01:33:26.742Z,-10.22
2023-02-09T01:33:57.531Z,-10.27
2023-02-09T01:34:28.859Z,-10.27
2023-02-09T01:34:59.819Z,-10.27
2023-02-09T01:35:32.394Z,-10.27
2023-02-09T01:36:01.896Z,-10.38
2023-02-09T01:36:32.794Z,-10.38
2023-02-09T01:37:03.834Z,-10.38
2023-02-09T01:37:34.907Z,-10.38
2023-02-09T01:38:05.584Z,-10.27
2023-02-09T01:38:36.782Z,-10.27
2023-02-09T01:39:07.965Z,-10.22
2023-02-09T01:39:38.880Z,-10.11
2023-02-09T01:40:09.655Z,-10.11
2023-02-09T01:40:45.284Z,-10.00
2023-02-09T01:41:12.457Z,-10.00
2023-02-09T01:41:43.463Z,-10.00
2023-02-09T01:42:14.386Z,-10.00
2023-02-09T01:42:45.036Z,-10.11
2023-02-09T01:43:15.913Z,-10.11
2023-02-09T01:43:47.012Z,-10.11
2023-02-09T01:44:18.390Z,-10.11
2023-02-09T01:44:50.065Z,-10.11
2023-02-09T01:45:23.407Z,-10.22
2023-02-09T01:45:52.095Z,-10.22
2023-02-09T01:46:22.338Z,-10.27
2023-02-09T01:46:53.057Z,-10.27
2023-02-09T01:47:24.071Z,-10.27
2023-02-09T01:47:54.954Z,-10.38
2023-02-09T01:48:26.125Z,-10.38
2023-02-09T01:48:57.129Z,-10.38
2023-02-09T01:49:25.135Z,-10.38
2023-02-09T01:49:55.016Z,-10.38
2023-02-09T01:50:33.641Z,-10.38
2023-02-09T01:51:01.843Z,-10.38
2023-02-09T01:51:31.866Z,-10.38
2023-02-09T01:52:03.397Z,-10.38
2023-02-09T01:52:34.312Z,-10.38
2023-02-09T01:53:05.145Z,-10.38
2023-02-09T01:53:35.900Z,-10.38
2023-02-09T01:54:07.197Z,-10.38
2023-02-09T01:54:38.461Z,-10.38
2023-02-09T01:55:09.052Z,-10.50
2023-02-09T01:55:40.146Z,-10.50
2023-02-09T01:56:11.694Z,-10.50
2023-02-09T01:56:41.825Z,-10.50
2023-02-09T01:57:13.065Z,-10.50
2023-02-09T01:57:43.953Z,-10.38
2023-02-09T01:58:14.738Z,-10.27
2023-02-09T01:58:45.825Z,-10.22
2023-02-09T01:59:16.760Z,-10.11
2023-02-09T01:59:47.698Z,-10.11
2023-02-09T02:00:24.456Z,-10.11
2023-02-09T02:00:50.006Z,-10.11
2023-02-09T02:01:21.793Z,-10.11
2023-02-09T02:01:51.991Z,-10.11
2023-02-09T02:02:23.021Z,-10.11
2023-02-09T02:02:54.071Z,-10.11
2023-02-09T02:03:24.869Z,-10.22
2023-02-09T02:03:55.922Z,-10.22
2023-02-09T02:04:26.882Z,-10.27
2023-02-09T02:04:57.926Z,-10.38
2023-02-09T02:05:28.723Z,-10.38
2023-02-09T02:05:59.750Z,-10.38
2023-02-09T02:06:31.784Z,-10.50
2023-02-09T02:07:01.816Z,-10.50
2023-02-09T02:07:32.822Z,-10.50
2023-02-09T02:08:03.773Z,-10.50
2023-02-09T02:08:34.678Z,-10.61
2023-02-09T02:09:05.784Z,-10.61
2023-02-09T02:09:36.683Z,-10.72
2023-02-09T02:10:07.673Z,-10.72
2023-02-09T02:10:38.755Z,-10.72
2023-02-09T02:11:09.756Z,-10.72
2023-02-09T02:11:41.787Z,-10.72
2023-02-09T02:12:12.415Z,-10.72
2023-02-09T02:12:42.594Z,-10.72
2023-02-09T02:13:13.710Z,-10.72
2023-02-09T02:13:44.748Z,-10.72
2023-02-09T02:14:15.921Z,-10.72
2023-02-09T02:14:46.762Z,-10.61
2023-02-09T02:15:20.506Z,-10.72
2023-02-09T02:15:48.914Z,-10.72
2023-02-09T02:16:19.747Z,-10.72
2023-02-09T02:16:51.926Z,-10.72
2023-02-09T02:17:21.725Z,-10.72
2023-02-09T02:17:52.646Z,-10.72
2023-02-09T02:18:23.693Z,-10.72
2023-02-09T02:18:54.730Z,-10.72
2023-02-09T02:19:25.703Z,-10.72
2023-02-09T02:19:56.827Z,-10.72
2023-02-09T02:20:27.841Z,-10.72
2023-02-09T02:20:58.742Z,-10.72
2023-02-09T02:21:29.656Z,-10.72
2023-02-09T02:22:01.792Z,-10.72
2023-02-09T02:22:31.829Z,-10.72
2023-02-09T02:23:02.911Z,-10.72
2023-02-09T02:23:33.963Z,-10.72
2023-02-09T02:24:04.721Z,-10.72
2023-02-09T02:24:35.782Z,-10.72
2023-02-09T02:25:06.852Z,-10.72
2023-02-09T02:25:37.954Z,-10.72
2023-02-09T02:26:09.021Z,-10.72
2023-02-09T02:26:39.868Z,-10.61
2023-02-09T02:27:11.753Z,-10.61
2023-02-09T02:27:41.880Z,-10.50
2023-02-09T02:28:12.886Z,-10.50
2023-02-09T02:28:43.628Z,-10.50
2023-02-09T02:29:14.853Z,-10.50
2023-02-09T02:29:45.890Z,-10.38
2023-02-09T02:30:19.746Z,-10.38
2023-02-09T02:30:48.410Z,-10.38
2023-02-09T02:31:19.052Z,-10.38
2023-02-09T02:31:49.873Z,-10.38
2023-02-09T02:32:21.775Z,-10.38
2023-02-09T02:32:51.727Z,-10.27
2023-02-09T02:33:22.772Z,-10.27
2023-02-09T02:33:53.664Z,-10.27
2023-02-09T02:34:24.975Z,-10.27
2023-02-09T02:34:56.050Z,-10.27
2023-02-09T02:35:26.787Z,-10.27
2023-02-09T02:35:57.712Z,-10.38
2023-02-09T02:36:28.840Z,-10.38
2023-02-09T02:36:59.838Z,-10.38
2023-02-09T02:37:31.877Z,-10.38
2023-02-09T02:38:01.684Z,-10.50
2023-02-09T02:38:33.017Z,-10.50
2023-02-09T02:39:03.921Z,-10.50
2023-02-09T02:39:34.949Z,-10.50
2023-02-09T02:40:06.013Z,-10.61
2023-02-09T02:40:36.982Z,-10.61
2023-02-09T02:41:07.763Z,-10.61
2023-02-09T02:41:38.739Z,-10.61
2023-02-09T02:42:09.848Z,-10.72
2023-02-09T02:42:41.726Z,-10.77
2023-02-09T02:43:11.796Z,-10.77
2023-02-09T02:43:42.808Z,-10.77
2023-02-09T02:44:13.732Z,-10.77
2023-02-09T02:44:44.763Z,-10.77
2023-02-09T02:45:18.707Z,-10.77
2023-02-09T02:45:46.829Z,-10.77
2023-02-09T02:46:18.031Z,-10.77
2023-02-09T02:46:48.981Z,-10.77
2023-02-09T02:47:19.865Z,-10.77
2023-02-09T02:47:51.940Z,-10.77
2023-02-09T02:48:21.880Z,-10.77
2023-02-09T02:48:52.971Z,-10.77
2023-02-09T02:49:23.797Z,-10.88
2023-02-09T02:49:54.878Z,-10.88
2023-02-09T02:50:25.989Z,-10.88
2023-02-09T02:50:57.000Z,-10.88
2023-02-09T02:51:27.902Z,-10.88
2023-02-09T02:51:58.738Z,-10.88
2023-02-09T02:52:29.872Z,-10.77
2023-02-09T02:53:01.850Z,-10.77
2023-02-09T02:53:31.845Z,-10.77
2023-02-09T02:54:02.877Z,-10.77
2023-02-09T02:54:33.760Z,-10.72
2023-02-09T02:55:04.921Z,-10.72
2023-02-09T02:55:35.761Z,-10.72
2023-02-09T02:56:07.034Z,-10.72
2023-02-09T02:56:38.133Z,-10.77
2023-02-09T02:57:08.865Z,-10.77
2023-02-09T02:57:39.870Z,-10.77
2023-02-09T02:58:11.998Z,-10.77
2023-02-09T02:58:42.194Z,-10.88
2023-02-09T02:59:12.810Z,-10.88
2023-02-09T02:59:43.675Z,-10.88
2023-02-09T03:00:17.807Z,-10.88
2023-02-09T03:00:46.209Z,-10.88
2023-02-09T03:01:16.863Z,-10.77
2023-02-09T03:01:48.085Z,-10.77
2023-02-09T03:02:19.046Z,-10.77
2023-02-09T03:02:49.971Z,-10.77
2023-02-09T03:03:22.084Z,-10.77
2023-02-09T03:03:52.080Z,-10.77
2023-02-09T03:04:22.874Z,-10.77
2023-02-09T03:04:53.829Z,-10.77
2023-02-09T03:05:24.666Z,-10.77
2023-02-09T03:05:55.768Z,-10.88
2023-02-09T03:06:26.907Z,-10.88
2023-02-09T03:06:57.718Z,-10.88
2023-02-09T03:07:28.744Z,-11.00
2023-02-09T03:10:34.788Z,-11.11
2023-02-09T03:11:05.799Z,-11.11
2023-02-09T03:11:36.917Z,-11.11
2023-02-09T03:12:07.901Z,-11.11
2023-02-09T03:12:38.899Z,-11.00
2023-02-09T03:13:09.897Z,-11.00
2023-02-09T03:13:41.924Z,-11.00
2023-02-09T03:14:11.997Z,-11.00
2023-02-09T03:14:42.969Z,-11.00
2023-02-09T03:15:16.496Z,-10.88
2023-02-09T03:15:44.972Z,-10.88
2023-02-09T03:16:15.988Z,-10.88
2023-02-09T03:16:46.999Z,-10.88
2023-02-09T03:17:17.921Z,-10.88
2023-02-09T03:17:48.938Z,-10.88
2023-02-09T03:18:19.937Z,-10.88
2023-02-09T03:18:51.954Z,-10.88
2023-02-09T03:19:22.037Z,-10.88
2023-02-09T03:19:52.756Z,-10.88
2023-02-09T03:20:23.902Z,-10.88
2023-02-09T03:20:54.941Z,-10.88
2023-02-09T03:21:26.004Z,-10.88
2023-02-09T03:21:57.024Z,-10.77
2023-02-09T03:22:27.870Z,-10.77
2023-02-09T03:22:58.698Z,-10.77
2023-02-09T03:23:29.800Z,-10.77
2023-02-09T03:24:01.893Z,-10.77
2023-02-09T03:24:31.757Z,-10.77
2023-02-09T03:25:02.728Z,-10.88
2023-02-09T03:25:33.785Z,-10.88
2023-02-09T03:26:04.954Z,-10.88
2023-02-09T03:26:35.917Z,-10.88
2023-02-09T03:27:06.969Z,-10.88
2023-02-09T03:27:37.690Z,-11.00
2023-02-09T03:28:09.010Z,-11.00
2023-02-09T03:28:40.250Z,-11.11
2023-02-09T03:29:11.624Z,-11.11
2023-02-09T03:29:41.951Z,-11.11
2023-02-09T03:30:15.804Z,-11.00
2023-02-09T03:30:44.222Z,-11.00
2023-02-09T03:31:15.074Z,-11.00
2023-02-09T03:31:45.994Z,-11.00
2023-02-09T03:32:16.946Z,-11.00
2023-02-09T03:32:47.886Z,-11.11
2023-02-09T03:33:18.849Z,-11.11
2023-02-09T03:33:49.732Z,-11.11
2023-02-09T03:34:21.623Z,-11.11
2023-02-09T03:34:51.839Z,-11.11
2023-02-09T03:35:22.844Z,-11.22
2023-02-09T03:35:53.911Z,-11.22
2023-02-09T03:36:24.978Z,-11.22
2023-02-09T03:36:55.838Z,-11.22
2023-02-09T03:37:27.001Z,-11.22
2023-02-09T03:37:57.966Z,-11.22
2023-02-09T03:38:28.721Z,-11.27
2023-02-09T03:39:00.121Z,-11.27
2023-02-09T03:39:31.848Z,-11.27
2023-02-09T03:40:02.043Z,-11.27
2023-02-09T03:40:33.151Z,-11.27
2023-02-09T03:41:04.148Z,-11.38
2023-02-09T03:41:35.088Z,-11.38
2023-02-09T03:42:06.011Z,-11.38
2023-02-09T03:42:36.926Z,-11.38
2023-02-09T03:43:07.716Z,-11.38
2023-02-09T03:43:38.824Z,-11.38
2023-02-09T03:44:10.012Z,-11.38
2023-02-09T03:44:42.012Z,-11.38
2023-02-09T03:45:14.857Z,-11.38
2023-02-09T03:45:42.991Z,-11.27
2023-02-09T03:46:13.817Z,-11.27
2023-02-09T03:46:45.022Z,-11.11
2023-02-09T03:47:15.952Z,-11.00
2023-02-09T03:47:47.044Z,-11.00
2023-02-09T03:48:17.896Z,-11.00
2023-02-09T03:48:49.043Z,-11.00
2023-02-09T03:49:20.162Z,-11.00
2023-02-09T03:49:51.965Z,-11.00
2023-02-09T03:50:21.796Z,-11.00
2023-02-09T03:50:52.673Z,-11.00
2023-02-09T03:51:23.875Z,-11.00
2023-02-09T03:51:54.977Z,-11.00
2023-02-09T03:52:25.778Z,-11.00
2023-02-09T03:52:57.119Z,-11.00
2023-02-09T03:53:27.847Z,-11.11
2023-02-09T03:53:58.942Z,-11.11
2023-02-09T03:54:30.059Z,-11.11
2023-02-09T03:55:02.013Z,-11.11
2023-02-09T03:55:32.090Z,-11.11
2023-02-09T03:56:03.123Z,-11.11
2023-02-09T03:56:34.089Z,-11.22
2023-02-09T03:57:04.989Z,-11.22
2023-02-09T03:57:35.983Z,-11.22
2023-02-09T03:58:06.965Z,-11.22
2023-02-09T03:58:37.737Z,-11.22
2023-02-09T03:59:08.901Z,-11.11
2023-02-09T03:59:39.974Z,-11.00
2023-02-09T04:00:14.669Z,-11.00
2023-02-09T04:00:42.023Z,-11.00
2023-02-09T04:01:13.116Z,-11.00
2023-02-09T04:01:43.834Z,-11.00
2023-02-09T04:02:15.095Z,-11.00
2023-02-09T04:02:46.006Z,-11.00
2023-02-09T04:03:17.202Z,-11.11
2023-02-09T04:03:48.013Z,-11.11
2023-02-09T04:04:18.874Z,-11.11
2023-02-09T04:04:50.092Z,-11.11
2023-02-09T04:05:21.895Z,-11.11
2023-02-09T04:05:52.033Z,-11.11
2023-02-09T04:06:22.786Z,-11.11
2023-02-09T04:06:53.930Z,-11.11
2023-02-09T04:07:24.702Z,-11.11
2023-02-09T04:07:56.009Z,-11.11
2023-02-09T04:08:26.984Z,-11.00
2023-02-09T04:08:57.967Z,-11.00
2023-02-09T04:09:28.819Z,-10.88
2023-02-09T04:10:00.066Z,-10.88
2023-02-09T04:10:31.959Z,-10.88
2023-02-09T04:11:01.859Z,-11.00
2023-02-09T04:11:32.935Z,-11.11
2023-02-09T04:12:03.870Z,-11.11
2023-02-09T04:12:35.083Z,-11.11
2023-02-09T04:13:06.027Z,-11.11
2023-02-09T04:13:36.958Z,-11.22
2023-02-09T04:14:07.744Z,-11.22
2023-02-09T04:14:38.918Z,-11.22
2023-02-09T04:15:12.777Z,-11.22
2023-02-09T04:15:41.988Z,-11.22
2023-02-09T04:16:12.101Z,-11.27
2023-02-09T04:16:42.970Z,-11.27
2023-02-09T04:17:13.857Z,-11.27
2023-02-09T04:17:44.907Z,-11.38
2023-02-09T04:18:15.908Z,-11.38
2023-02-09T04:18:46.997Z,-11.38
2023-02-09T04:19:17.985Z,-11.38
2023-02-09T04:19:48.897Z,-11.38
2023-02-09T04:20:19.888Z,-11.38
2023-02-09T04:20:51.921Z,-11.38
2023-02-09T04:21:22.260Z,-11.38
2023-02-09T04:21:52.867Z,-11.38
2023-02-09T04:22:23.924Z,-11.38
2023-02-09T04:22:54.998Z,-11.38
2023-02-09T04:23:25.928Z,-11.38
2023-02-09T04:23:56.922Z,-11.38
2023-02-09T04:24:27.888Z,-11.50
2023-02-09T04:24:58.774Z,-11.50
2023-02-09T04:25:29.911Z,-11.50
2023-02-09T04:26:02.180Z,-11.61
2023-02-09T04:26:31.942Z,-11.61
2023-02-09T04:27:03.014Z,-11.61
2023-02-09T04:27:33.756Z,-11.61
2023-02-09T04:28:04.928Z,-11.61
2023-02-09T04:28:36.048Z,-11.61
2023-02-09T04:29:07.151Z,-11.61
2023-02-09T04:29:37.792Z,-11.61
2023-02-09T04:30:11.708Z,-11.61
2023-02-09T04:30:40.351Z,-11.61
2023-02-09T04:31:12.173Z,-11.61
2023-02-09T04:31:41.918Z,-11.61
2023-02-09T04:32:12.814Z,-11.61
2023-02-09T04:32:43.815Z,-11.61
2023-02-09T04:33:14.998Z,-11.61
2023-02-09T04:36:21.933Z,-11.61
2023-02-09T04:36:52.017Z,-11.61
2023-02-09T04:37:22.862Z,-11.72
2023-02-09T04:37:54.067Z,-11.72
2023-02-09T04:38:25.036Z,-11.72
2023-02-09T04:38:55.930Z,-11.72
2023-02-09T04:39:27.133Z,-11.72
2023-02-09T04:39:57.985Z,-11.72
2023-02-09T04:40:28.902Z,-11.72
2023-02-09T04:40:59.724Z,-11.72
2023-02-09T04:41:31.978Z,-11.61
2023-02-09T04:42:01.887Z,-11.61
2023-02-09T04:42:33.020Z,-11.50
2023-02-09T04:43:04.016Z,-11.50
2023-02-09T04:43:35.178Z,-11.50
2023-02-09T04:44:06.018Z,-11.50
2023-02-09T04:44:36.888Z,-11.61
2023-02-09T04:45:10.618Z,-11.61
2023-02-09T04:45:39.220Z,-11.61
2023-02-09T04:46:09.941Z,-11.72
2023-02-09T04:46:43.653Z,-11.72
2023-02-09T04:47:12.038Z,-11.72
2023-02-09T04:47:42.825Z,-11.72
2023-02-09T04:48:13.869Z,-11.72
2023-02-09T04:48:45.131Z,-11.77
2023-02-09T04:49:15.814Z,-11.77
2023-02-09T04:49:47.017Z,-11.77
2023-02-09T04:50:18.152Z,-11.77
2023-02-09T04:50:48.877Z,-11.77
2023-02-09T04:51:19.880Z,-11.77
2023-02-09T04:51:51.887Z,-11.72
2023-02-09T04:52:22.039Z,-11.72
2023-02-09T04:52:52.952Z,-11.72
2023-02-09T04:53:23.974Z,-11.72
2023-02-09T04:53:54.772Z,-11.72
2023-02-09T04:54:26.014Z,-11.72
2023-02-09T04:54:57.021Z,-11.72
2023-02-09T04:55:27.912Z,-11.72
2023-02-09T04:55:59.025Z,-11.72
2023-02-09T04:56:30.173Z,-11.61
2023-02-09T04:57:02.070Z,-11.61
2023-02-09T04:57:31.852Z,-11.61
2023-02-09T04:58:03.175Z,-11.50
2023-02-09T04:58:33.928Z,-11.50
2023-02-09T04:59:05.090Z,-11.50
2023-02-09T04:59:36.183Z,-11.50
2023-02-09T05:00:09.773Z,-11.50
2023-02-09T05:00:38.059Z,-11.50
2023-02-09T05:01:09.286Z,-11.50
2023-02-09T05:01:40.156Z,-11.50
2023-02-09T05:02:11.871Z,-11.50
2023-02-09T05:02:42.152Z,-11.50
2023-02-09T05:03:13.024Z,-11.50
2023-02-09T05:03:44.220Z,-11.50
2023-02-09T05:04:14.789Z,-11.38
2023-02-09T05:04:45.967Z,-11.38
2023-02-09T05:05:16.999Z,-11.27
2023-02-09T05:05:48.252Z,-11.27
2023-02-09T05:06:19.021Z,-11.27
2023-02-09T05:06:49.869Z,-11.27
2023-02-09T05:07:22.017Z,-11.27
2023-02-09T05:07:52.169Z,-11.38
2023-02-09T05:08:23.047Z,-11.38
2023-02-09T05:08:53.817Z,-11.38
2023-02-09T05:09:24.999Z,-11.38
2023-02-09T05:09:56.081Z,-11.38
2023-02-09T05:10:27.075Z,-11.38
2023-02-09T05:10:57.922Z,-11.38
2023-02-09T05:11:28.855Z,-11.38
2023-02-09T05:12:00.123Z,-11.50
2023-02-09T05:12:31.875Z,-11.50
2023-02-09T05:13:02.059Z,-11.50
2023-02-09T05:13:32.990Z,-11.50
2023-02-09T05:14:03.937Z,-11.50
2023-02-09T05:14:34.988Z,-11.50
2023-02-09T05:15:08.810Z,-11.50
2023-02-09T05:15:37.078Z,-11.50
2023-02-09T05:16:08.061Z,-11.50
2023-02-09T05:16:39.314Z,-11.38
2023-02-09T05:17:09.928Z,-11.38
2023-02-09T05:17:42.026Z,-11.38
2023-02-09T05:18:12.053Z,-11.38
2023-02-09T05:18:42.974Z,-11.38
2023-02-09T05:19:14.052Z,-11.38
2023-02-09T05:19:45.160Z,-11.38
2023-02-09T05:20:16.156Z,-11.50
2023-02-09T05:20:47.385Z,-11.50
2023-02-09T05:21:18.146Z,-11.50
2023-02-09T05:21:48.983Z,-11.50
2023-02-09T05:22:20.064Z,-11.50
2023-02-09T05:22:51.982Z,-11.50
2023-02-09T05:23:21.967Z,-11.50
2023-02-09T05:23:52.938Z,-11.50
2023-02-09T05:24:23.933Z,-11.38
2023-02-09T05:24:55.252Z,-11.27
2023-02-09T05:25:26.384Z,-11.22
2023-02-09T05:25:57.141Z,-11.22
2023-02-09T05:26:27.892Z,-11.22
2023-02-09T05:26:58.985Z,-11.22
2023-02-09T05:27:30.064Z,-11.22
2023-02-09T05:28:02.241Z,-11.22
2023-02-09T05:28:32.028Z,-11.22
2023-02-09T05:29:03.181Z,-11.22
2023-02-09T05:29:34.032Z,-11.22
2023-02-09T05:30:08.124Z,-11.22
2023-02-09T05:30:35.875Z,-11.27
2023-02-09T05:31:06.994Z,-11.27
2023-02-09T05:31:38.031Z,-11.27
2023-02-09T05:32:09.233Z,-11.38
2023-02-09T05:32:40.088Z,-11.38
2023-02-09T05:33:12.104Z,-11.38
2023-02-09T05:33:41.987Z,-11.38
2023-02-09T05:34:13.107Z,-11.38
2023-02-09T05:34:43.928Z,-11.38
2023-02-09T05:35:14.972Z,-11.38
2023-02-09T05:35:46.084Z,-11.38
2023-02-09T05:36:17.167Z,-11.38
2023-02-09T05:36:48.239Z,-11.38
2023-02-09T05:37:19.055Z,-11.27
2023-02-09T05:37:49.880Z,-11.27
2023-02-09T05:38:22.019Z,-11.27
2023-02-09T05:38:52.023Z,-11.27
2023-02-09T05:39:23.062Z,-11.22
2023-02-09T05:39:53.991Z,-11.22
2023-02-09T05:40:24.955Z,-11.22
2023-02-09T05:40:56.135Z,-11.27
2023-02-09T05:41:26.977Z,-11.27
2023-02-09T05:41:57.881Z,-11.27
2023-02-09T05:42:28.819Z,-11.27
2023-02-09T05:43:00.052Z,-11.27
2023-02-09T05:43:31.985Z,-11.27
2023-02-09T05:44:02.008Z,-11.27
2023-02-09T05:44:33.124Z,-11.27
2023-02-09T05:45:06.829Z,-11.27
2023-02-09T05:45:35.167Z,-11.27
2023-02-09T05:46:08.315Z,-11.27
2023-02-09T05:46:37.220Z,-11.27
2023-02-09T05:47:08.009Z,-11.27
2023-02-09T05:47:38.970Z,-11.22
2023-02-09T05:48:10.296Z,-11.22
2023-02-09T05:48:42.070Z,-11.11
2023-02-09T05:49:12.084Z,-11.11
2023-02-09T05:49:43.019Z,-11.11
2023-02-09T05:50:14.078Z,-11.11
2023-02-09T05:50:45.435Z,-11.11
2023-02-09T05:51:16.114Z,-11.11
2023-02-09T05:51:47.075Z,-11.11
2023-02-09T05:52:18.386Z,-11.22
2023-02-09T05:52:49.099Z,-11.22
2023-02-09T05:53:20.150Z,-11.22
2023-02-09T05:53:52.131Z,-11.22
2023-02-09T05:54:22.124Z,-11.22
2023-02-09T05:54:53.007Z,-11.22
2023-02-09T05:55:24.094Z,-11.11
2023-02-09T05:55:55.363Z,-11.11
2023-02-09T05:56:26.081Z,-11.11
2023-02-09T05:56:57.231Z,-11.11
2023-02-09T05:57:28.032Z,-11.11
2023-02-09T05:57:58.986Z,-11.11
2023-02-09T05:58:29.907Z,-11.11
2023-02-09T05:59:04.310Z,-11.11
2023-02-09T05:59:31.934Z,-11.11
2023-02-09T06:00:06.025Z,-11.22
2023-02-09T06:00:34.101Z,-11.22
2023-02-09T06:01:05.051Z,-11.22
2023-02-09T06:01:35.966Z,-11.22
2023-02-09T06:02:07.077Z,-11.22
2023-02-09T06:02:38.084Z,-11.22
2023-02-09T06:03:09.306Z,-11.27
2023-02-09T06:03:39.994Z,-11.27
2023-02-09T06:04:12.013Z,-11.27
2023-02-09T06:04:42.138Z,-11.27
2023-02-09T06:05:13.010Z,-11.27
2023-02-09T06:05:44.071Z,-11.27
2023-02-09T06:06:15.175Z,-11.27
2023-02-09T06:06:46.049Z,-11.27
2023-02-09T06:07:17.097Z,-11.38
2023-02-09T06:07:47.920Z,-11.38
2023-02-09T06:08:19.145Z,-11.38
2023-02-09T06:08:50.156Z,-11.38
2023-02-09T06:09:22.138Z,-11.38
2023-02-09T06:09:52.231Z,-11.38
2023-02-09T06:10:23.166Z,-11.38
2023-02-09T06:10:54.046Z,-11.38
2023-02-09T06:11:25.046Z,-11.38
2023-02-09T06:11:56.192Z,-11.27
2023-02-09T06:12:26.964Z,-11.22
2023-02-09T06:12:58.097Z,-11.11
2023-02-09T06:13:29.045Z,-11.00
2023-02-09T06:14:00.216Z,-11.00
2023-02-09T06:14:32.133Z,-11.00
2023-02-09T06:15:04.990Z,-11.00
2023-02-09T06:15:33.250Z,-11.00
2023-02-09T06:16:04.220Z,-11.00
2023-02-09T06:16:35.184Z,-11.00
2023-02-09T06:17:05.918Z,-11.00
2023-02-09T06:17:37.159Z,-11.00
2023-02-09T06:18:08.079Z,-11.00
2023-02-09T06:18:39.213Z,-11.00
2023-02-09T06:19:10.114Z,-11.00
2023-02-09T06:19:41.894Z,-11.00
2023-02-09T06:20:12.184Z,-11.00
2023-02-09T06:20:43.344Z,-11.00
2023-02-09T06:21:14.026Z,-11.00
2023-02-09T06:21:44.909Z,-11.00
2023-02-09T06:22:15.999Z,-11.00
2023-02-09T06:22:47.145Z,-11.00
2023-02-09T06:23:22.157Z,-11.00
2023-02-09T06:23:49.128Z,-11.00
2023-02-09T06:24:19.972Z,-11.11
2023-02-09T06:24:52.185Z,-11.11
2023-02-09T06:25:22.183Z,-11.11
2023-02-09T06:25:53.053Z,-11.11
2023-02-09T06:26:23.996Z,-11.11
2023-02-09T06:26:55.189Z,-11.11
2023-02-09T06:27:25.962Z,-11.11
2023-02-09T06:27:57.341Z,-11.11
2023-02-09T06:28:28.189Z,-11.11
2023-02-09T06:28:58.973Z,-11.11
2023-02-09T06:29:30.183Z,-11.00
2023-02-09T06:30:05.026Z,-11.00
2023-02-09T06:30:32.991Z,-11.00
2023-02-09T06:31:03.037Z,-11.00
2023-02-09T06:31:34.296Z,-11.00
2023-02-09T06:32:05.235Z,-11.00
2023-02-09T06:32:35.909Z,-11.00
2023-02-09T06:33:07.048Z,-10.88
2023-02-09T06:33:37.969Z,-10.88
2023-02-09T06:34:09.295Z,-10.88